createdAt,value
2023-01-09T00:02:21.918Z,3.33
2023-01-09T00:04:52.994Z,2.88
2023-01-09T00:07:23.709Z,2.63
2023-01-09T00:09:54.588Z,2.65
2023-01-09T00:12:28.032Z,2.20
2023-01-09T00:14:58.814Z,2.70
2023-01-09T00:17:29.985Z,2.17
2023-01-09T00:20:01.461Z,2.40
2023-01-09T00:22:32.350Z,2.03
2023-01-09T00:25:03.132Z,1.60
2023-01-09T00:27:38.008Z,1.63
2023-01-09T00:30:10.277Z,2.08
2023-01-09T00:32:41.024Z,1.75
2023-01-09T00:35:15.180Z,1.60
2023-01-09T00:37:45.946Z,1.80
2023-01-09T00:40:18.426Z,2.88
2023-01-09T00:42:55.228Z,1.92
2023-01-09T00:45:29.620Z,1.33
2023-01-09T00:48:04.513Z,1.90
2023-01-09T00:50:36.933Z,1.77
2023-01-09T00:53:13.159Z,2.00
2023-01-09T00:55:44.493Z,2.55
2023-01-09T00:58:18.091Z,1.25
2023-01-09T01:00:49.316Z,1.45
2023-01-09T01:03:20.200Z,1.67
2023-01-09T01:06:03.332Z,1.48
2023-01-09T01:08:34.105Z,0.85
2023-01-09T01:11:09.451Z,1.20
2023-01-09T01:13:44.437Z,1.45
2023-01-09T01:16:18.450Z,1.02
2023-01-09T01:18:49.600Z,1.05
2023-01-09T01:21:21.464Z,1.00
2023-01-09T01:23:52.348Z,0.50
2023-01-09T01:26:23.051Z,0.77
2023-01-09T01:28:56.470Z,0.60
2023-01-09T01:31:27.332Z,0.73
2023-01-09T01:33:58.107Z,0.60
2023-01-09T01:36:28.840Z,0.60
2023-01-09T01:38:59.580Z,0.90
2023-01-09T01:41:32.242Z,0.70
2023-01-09T01:44:08.121Z,0.40
2023-01-09T01:46:38.848Z,0.65
2023-01-09T01:49:13.595Z,0.57
2023-01-09T01:51:50.040Z,0.60
2023-01-09T01:54:26.475Z,0.60
2023-01-09T01:57:02.177Z,1.60
2023-01-09T01:59:39.735Z,3.65
2023-01-09T02:02:12.512Z,5.68
2023-01-09T02:04:43.378Z,4.97
2023-01-09T02:07:15.170Z,3.75
2023-01-09T02:09:47.529Z,2.67
2023-01-09T02:12:23.851Z,1.40
2023-01-09T02:15:01.470Z,7.15
2023-01-09T02:18:03.505Z,1.17
2023-01-09T02:20:46.997Z,1.00
2023-01-09T02:23:47.520Z,1.02
2023-01-09T02:26:38.662Z,0.90
2023-01-09T02:29:40.195Z,1.00
2023-01-09T02:32:23.364Z,0.88
2023-01-09T02:35:03.452Z,1.10
2023-01-09T02:37:42.536Z,1.75
2023-01-09T02:40:22.866Z,1.88
2023-01-09T02:42:55.116Z,1.00
2023-01-09T02:45:26.254Z,1.38
2023-01-09T02:47:59.820Z,0.80
2023-01-09T02:50:37.339Z,1.58
2023-01-09T02:53:34.678Z,1.23
2023-01-09T02:56:29.600Z,0.95
2023-01-09T02:59:24.242Z,1.35
2023-01-09T03:02:07.906Z,1.08
2023-01-09T03:04:51.584Z,1.30
2023-01-09T03:07:28.261Z,1.50
2023-01-09T03:10:04.567Z,1.20
2023-01-09T03:12:36.384Z,1.40
2023-01-09T03:15:10.643Z,2.17
2023-01-09T03:17:44.659Z,1.23
2023-01-09T03:20:23.387Z,1.05
2023-01-09T03:22:58.898Z,0.80
2023-01-09T03:25:31.402Z,1.20
2023-01-09T03:28:04.178Z,0.85
2023-01-09T03:30:36.714Z,0.80
2023-01-09T03:33:07.593Z,0.80
2023-01-09T03:35:41.193Z,1.58
2023-01-09T03:38:12.001Z,1.23
2023-01-09T03:40:43.540Z,0.80
2023-01-09T03:43:14.335Z,1.00
2023-01-09T03:45:46.875Z,0.95
2023-01-09T03:48:17.663Z,0.95
2023-01-09T03:50:51.957Z,1.27
2023-01-09T03:53:23.953Z,0.70
2023-01-09T03:55:56.298Z,0.93
2023-01-09T03:58:28.027Z,1.35
2023-01-09T04:01:03.295Z,1.00
2023-01-09T04:03:34.381Z,1.15
2023-01-09T04:06:08.392Z,0.90
2023-01-09T04:08:39.479Z,2.30
2023-01-09T04:11:10.217Z,1.27
2023-01-09T04:13:41.041Z,1.10
2023-01-09T04:16:12.245Z,1.25
2023-01-09T04:18:43.071Z,1.20
2023-01-09T04:21:16.499Z,1.48
2023-01-09T04:23:47.716Z,3.55
2023-01-09T04:26:18.487Z,2.83
2023-01-09T04:28:49.320Z,3.13
2023-01-09T04:31:20.178Z,1.48
2023-01-09T04:33:50.987Z,1.08
2023-01-09T04:36:24.433Z,2.05
2023-01-09T04:38:55.262Z,2.03
2023-01-09T04:41:38.300Z,1.60
2023-01-09T04:44:09.383Z,1.48
2023-01-09T04:46:40.190Z,1.08
2023-01-09T04:49:10.962Z,2.20
2023-01-09T04:51:44.551Z,2.35
2023-01-09T04:54:15.466Z,1.10
2023-01-09T04:56:46.301Z,1.20
2023-01-09T04:59:17.447Z,1.17
2023-01-09T05:01:48.336Z,1.45
2023-01-09T05:04:19.275Z,1.00
2023-01-09T05:06:52.696Z,1.48
2023-01-09T05:09:23.749Z,1.20
2023-01-09T05:11:55.096Z,1.00
2023-01-09T05:14:26.492Z,1.42
2023-01-09T05:16:57.260Z,2.03
2023-01-09T05:19:27.971Z,1.98
2023-01-09T05:22:01.305Z,1.92
2023-01-09T05:24:32.143Z,1.15
2023-01-09T05:27:03.133Z,0.90
2023-01-09T05:29:34.057Z,1.02
2023-01-09T05:32:05.303Z,1.33
2023-01-09T05:34:36.202Z,1.50
2023-01-09T05:37:09.563Z,1.60
2023-01-09T05:39:40.402Z,0.90
2023-01-09T05:42:11.231Z,0.93
2023-01-09T05:44:42.043Z,0.85
2023-01-09T05:47:12.918Z,1.00
2023-01-09T05:49:43.681Z,1.10
2023-01-09T05:52:17.149Z,1.35
2023-01-09T05:54:47.928Z,1.50
2023-01-09T05:57:19.001Z,0.93
2023-01-09T05:59:49.800Z,1.25
2023-01-09T06:02:20.673Z,1.27
2023-01-09T06:04:51.615Z,1.00
2023-01-09T06:07:25.111Z,1.15
2023-01-09T06:09:55.945Z,2.38
2023-01-09T06:12:26.724Z,0.80
2023-01-09T06:14:57.611Z,1.83
2023-01-09T06:17:28.372Z,0.90
2023-01-09T06:19:59.129Z,0.82
2023-01-09T06:22:32.523Z,2.17
2023-01-09T06:25:03.310Z,0.77
2023-01-09T06:27:34.214Z,1.80
2023-01-09T06:30:05.207Z,1.55
2023-01-09T06:32:36.183Z,1.25
2023-01-09T06:35:07.370Z,1.35
2023-01-09T06:37:40.964Z,1.27
2023-01-09T06:40:13.559Z,1.25
2023-01-09T06:42:47.538Z,1.17
2023-01-09T06:45:19.822Z,1.08
2023-01-09T06:47:50.768Z,0.80
2023-01-09T06:50:22.103Z,1.05
2023-01-09T06:52:55.555Z,1.05
2023-01-09T06:55:26.570Z,1.42
2023-01-09T06:57:57.476Z,1.08
2023-01-09T07:00:28.616Z,1.65
2023-01-09T07:02:59.508Z,1.58
2023-01-09T07:05:30.509Z,1.02
2023-01-09T07:08:03.875Z,1.70
2023-01-09T07:10:34.733Z,1.10
2023-01-09T07:13:05.558Z,1.02
2023-01-09T07:15:36.365Z,1.25
2023-01-09T07:18:07.443Z,1.20
2023-01-09T07:20:38.246Z,1.40
2023-01-09T07:23:13.432Z,0.80
2023-01-09T07:25:45.241Z,1.10
2023-01-09T07:28:16.018Z,1.50
2023-01-09T07:30:46.989Z,1.73
2023-01-09T07:33:17.808Z,1.05
2023-01-09T07:35:48.740Z,1.50
2023-01-09T07:38:22.159Z,1.58
2023-01-09T07:40:53.088Z,1.17
2023-01-09T07:43:23.850Z,1.98
2023-01-09T07:45:54.932Z,1.50
2023-01-09T07:48:25.948Z,1.77
2023-01-09T07:50:56.867Z,1.55
2023-01-09T07:53:30.370Z,1.63
2023-01-09T07:56:01.613Z,1.00
2023-01-09T07:58:32.459Z,1.73
2023-01-09T08:01:03.339Z,1.52
2023-01-09T08:03:34.207Z,1.25
2023-01-09T08:06:05.683Z,2.17
2023-01-09T08:08:39.245Z,1.85
2023-01-09T08:11:10.052Z,2.15
2023-01-09T08:13:40.819Z,1.10
2023-01-09T08:16:11.761Z,1.90
2023-01-09T08:18:42.551Z,1.60
2023-01-09T08:21:14.625Z,1.52
2023-01-09T08:23:48.471Z,1.30
2023-01-09T08:26:19.807Z,2.20
2023-01-09T08:28:50.639Z,2.42
2023-01-09T08:31:21.659Z,2.00
2023-01-09T08:33:52.489Z,4.40
2023-01-09T08:36:23.435Z,2.75
2023-01-09T08:38:56.968Z,8.30
2023-01-09T08:41:40.124Z,2.75
2023-01-09T08:44:23.373Z,3.78
2023-01-09T08:47:08.896Z,2.58
2023-01-09T08:49:41.513Z,7.15
2023-01-09T08:52:13.880Z,6.32
2023-01-09T08:54:47.373Z,3.30
2023-01-09T08:57:18.187Z,5.07
2023-01-09T08:59:49.045Z,2.05
2023-01-09T09:02:19.856Z,2.05
2023-01-09T09:04:53.190Z,1.88
2023-01-09T09:07:26.892Z,2.28
2023-01-09T09:10:00.280Z,3.63
2023-01-09T09:12:31.121Z,3.65
2023-01-09T09:15:14.195Z,4.85
2023-01-09T09:17:45.643Z,4.75
2023-01-09T09:20:16.482Z,3.95
2023-01-09T09:22:49.492Z,1.85
2023-01-09T09:25:23.766Z,1.95
2023-01-09T09:27:56.119Z,1.95
2023-01-09T09:30:27.975Z,1.60
2023-01-09T09:32:58.946Z,1.45
2023-01-09T09:35:31.324Z,2.10
2023-01-09T09:38:05.340Z,1.63
2023-01-09T09:41:05.379Z,1.60
2023-01-09T09:44:21.638Z,1.27
2023-01-09T09:47:01.220Z,1.38
2023-01-09T09:49:38.519Z,1.17
2023-01-09T09:52:16.145Z,1.40
2023-01-09T09:54:52.134Z,1.65
2023-01-09T09:57:35.571Z,2.03
2023-01-09T10:00:08.099Z,2.15
2023-01-09T10:02:50.710Z,1.02
2023-01-09T10:05:28.475Z,1.40
2023-01-09T10:08:15.471Z,1.17
2023-01-09T10:13:38.586Z,1.05
2023-01-09T10:16:15.538Z,1.23
2023-01-09T10:19:01.393Z,1.42
2023-01-09T10:21:40.322Z,1.50
2023-01-09T10:24:25.370Z,1.73
2023-01-09T10:26:57.403Z,1.20
2023-01-09T10:29:43.226Z,6.63
2023-01-09T10:32:28.535Z,5.10
2023-01-09T10:35:09.848Z,6.45
2023-01-09T10:37:44.693Z,5.85
2023-01-09T10:40:24.312Z,2.42
2023-01-09T10:43:02.392Z,1.70
2023-01-09T10:45:39.646Z,2.38
2023-01-09T10:48:21.828Z,1.95
2023-01-09T10:50:54.612Z,1.90
2023-01-09T10:53:28.716Z,1.63
2023-01-09T10:56:04.884Z,1.80
2023-01-09T10:58:35.875Z,1.80
2023-01-09T11:01:10.256Z,2.42
2023-01-09T11:03:41.418Z,1.70
2023-01-09T11:06:25.840Z,1.83
2023-01-09T11:08:59.691Z,2.20
2023-01-09T11:11:38.884Z,1.58
2023-01-09T11:14:19.246Z,1.15
2023-01-09T11:17:01.476Z,1.45
2023-01-09T11:19:33.719Z,1.30
2023-01-09T11:22:17.678Z,1.45
2023-01-09T11:24:48.531Z,1.38
2023-01-09T11:27:28.383Z,1.50
2023-01-09T11:30:20.279Z,1.67
2023-01-09T11:32:53.665Z,1.95
2023-01-09T11:35:33.951Z,1.70
2023-01-09T11:38:09.899Z,1.75
2023-01-09T11:40:51.195Z,1.42
2023-01-09T11:43:31.017Z,1.20
2023-01-09T11:46:04.245Z,1.17
2023-01-09T11:48:40.659Z,1.60
2023-01-09T11:51:23.299Z,2.20
2023-01-09T11:54:18.127Z,1.58
2023-01-09T11:56:50.340Z,2.42
2023-01-09T11:59:23.574Z,1.88
2023-01-09T12:02:13.613Z,2.00
2023-01-09T12:04:54.571Z,1.40
2023-01-09T12:07:45.734Z,1.80
2023-01-09T12:10:39.140Z,2.47
2023-01-09T12:13:22.458Z,1.50
2023-01-09T12:16:04.123Z,1.58
2023-01-09T12:18:48.229Z,2.15
2023-01-09T12:21:36.610Z,1.45
2023-01-09T12:24:24.248Z,1.38
2023-01-09T12:30:19.399Z,2.40
2023-01-09T12:33:03.233Z,1.92
2023-01-09T12:35:39.301Z,4.63
2023-01-09T12:38:32.312Z,4.60
2023-01-09T12:41:28.288Z,2.45
2023-01-09T12:44:34.279Z,1.15
2023-01-09T12:47:23.358Z,1.92
2023-01-09T12:50:06.726Z,1.23
2023-01-09T12:52:42.374Z,1.05
2023-01-09T12:55:21.472Z,1.40
2023-01-09T12:57:53.826Z,1.27
2023-01-09T13:00:27.653Z,1.17
2023-01-09T13:03:11.959Z,1.20
2023-01-09T13:05:47.413Z,1.15
2023-01-09T13:08:24.289Z,1.52
2023-01-09T13:11:08.557Z,1.27
2023-01-09T13:13:50.086Z,1.40
2023-01-09T13:16:25.379Z,2.60
2023-01-09T13:18:59.379Z,1.48
2023-01-09T13:21:30.290Z,2.28
2023-01-09T13:24:06.748Z,1.60
2023-01-09T13:26:45.460Z,1.30
2023-01-09T13:29:21.415Z,1.58
2023-01-09T13:32:33.103Z,1.05
2023-01-09T13:35:04.068Z,1.35
2023-01-09T13:37:37.261Z,1.77
2023-01-09T13:40:10.454Z,1.35
2023-01-09T13:42:46.532Z,1.35
2023-01-09T13:45:25.914Z,1.43
2023-01-09T13:48:26.960Z,1.65
2023-01-09T13:51:32.546Z,2.22
2023-01-09T13:54:03.040Z,1.60
2023-01-09T13:56:33.605Z,2.72
2023-01-09T13:59:28.392Z,2.72
2023-01-09T14:01:58.725Z,2.42
2023-01-09T14:04:47.639Z,2.38
2023-01-09T14:07:22.904Z,1.90
2023-01-09T14:09:58.439Z,1.65
2023-01-09T14:12:29.460Z,1.15
2023-01-09T14:15:05.181Z,1.70
2023-01-09T14:17:39.575Z,1.58
2023-01-09T14:20:26.890Z,1.63
2023-01-09T14:25:52.741Z,2.30
2023-01-09T14:28:24.454Z,2.25
2023-01-09T14:31:12.514Z,1.77
2023-01-09T14:33:42.827Z,1.38
2023-01-09T14:36:19.564Z,1.38
2023-01-09T14:38:52.168Z,1.73
2023-01-09T14:41:48.644Z,2.17
2023-01-09T14:44:30.258Z,1.60
2023-01-09T14:47:08.480Z,2.22
2023-01-09T14:49:44.007Z,1.60
2023-01-09T14:52:24.205Z,2.17
2023-01-09T14:54:57.044Z,2.03
2023-01-09T14:57:32.107Z,2.75
2023-01-09T15:00:04.017Z,3.42
2023-01-09T15:02:40.307Z,1.50
2023-01-09T15:05:13.673Z,1.33
2023-01-09T15:07:48.445Z,1.85
2023-01-09T15:10:22.453Z,1.35
2023-01-09T15:12:54.988Z,1.70
2023-01-09T15:15:26.353Z,1.52
2023-01-09T15:18:02.886Z,1.80
2023-01-09T15:20:35.206Z,2.45
2023-01-09T15:23:06.553Z,1.63
2023-01-09T15:25:40.057Z,1.33
2023-01-09T15:28:27.573Z,1.48
2023-01-09T15:31:00.828Z,1.50
2023-01-09T15:33:34.191Z,1.30
2023-01-09T15:36:09.643Z,1.33
2023-01-09T15:38:41.277Z,1.50
2023-01-09T15:41:14.467Z,1.52
2023-01-09T15:43:44.434Z,1.30
2023-01-09T15:46:15.089Z,1.30
2023-01-09T15:48:48.132Z,1.30
2023-01-09T15:51:20.748Z,0.80
2023-01-09T15:53:53.880Z,1.20
2023-01-09T15:56:26.852Z,1.75
2023-01-09T15:58:57.866Z,0.93
2023-01-09T16:01:32.821Z,1.60
2023-01-09T16:04:11.754Z,1.15
2023-01-09T16:06:47.881Z,1.88
2023-01-09T16:09:21.771Z,1.10
2023-01-09T16:11:55.543Z,1.13
2023-01-09T16:14:28.774Z,1.30
2023-01-09T16:17:04.090Z,2.22
2023-01-09T16:19:50.605Z,2.20
2023-01-09T16:22:24.800Z,2.28
2023-01-09T16:24:57.436Z,2.30
2023-01-09T16:27:30.870Z,3.30
2023-01-09T16:30:02.540Z,4.78
2023-01-09T16:32:35.704Z,3.90
2023-01-09T16:35:17.446Z,2.47
2023-01-09T16:37:47.824Z,2.50
2023-01-09T16:40:27.648Z,1.75
2023-01-09T16:43:08.599Z,2.78
2023-01-09T16:45:40.929Z,2.25
2023-01-09T16:48:17.770Z,2.08
2023-01-09T16:53:44.677Z,1.58
2023-01-09T16:56:22.142Z,2.30
2023-01-09T16:58:53.561Z,2.30
2023-01-09T17:01:24.782Z,2.17
2023-01-09T17:03:55.319Z,1.50
2023-01-09T17:06:29.599Z,2.33
2023-01-09T17:09:02.518Z,2.22
2023-01-09T17:11:32.744Z,3.25
2023-01-09T17:14:03.902Z,2.85
2023-01-09T17:16:34.637Z,2.15
2023-01-09T17:19:05.037Z,2.05
2023-01-09T17:21:35.637Z,1.67
2023-01-09T17:24:30.455Z,2.50
2023-01-09T17:27:13.994Z,2.60
2023-01-09T17:29:44.690Z,3.67
2023-01-09T17:32:17.816Z,2.67
2023-01-09T17:34:48.705Z,2.78
2023-01-09T17:37:23.200Z,3.10
2023-01-09T17:40:01.061Z,2.63
2023-01-09T17:42:31.490Z,3.70
2023-01-09T17:45:01.725Z,2.72
2023-01-09T17:47:32.268Z,3.58
2023-01-09T17:50:03.248Z,2.22
2023-01-09T17:52:33.612Z,2.53
2023-01-09T17:55:07.274Z,2.70
2023-01-09T17:57:37.873Z,2.40
2023-01-09T18:00:09.529Z,2.78
2023-01-09T18:02:39.788Z,2.78
2023-01-09T18:05:10.877Z,3.25
2023-01-09T18:07:41.516Z,2.70
2023-01-09T18:10:17.723Z,2.80
2023-01-09T18:12:50.524Z,2.65
2023-01-09T18:15:21.058Z,2.70
2023-01-09T18:17:51.540Z,3.03
2023-01-09T18:20:22.761Z,2.92
2023-01-09T18:22:53.065Z,2.45
2023-01-09T18:25:26.157Z,2.72
2023-01-09T18:27:56.455Z,2.13
2023-01-09T18:30:26.863Z,2.22
2023-01-09T18:32:57.560Z,3.40
2023-01-09T18:35:27.990Z,2.83
2023-01-09T18:37:58.313Z,3.35
2023-01-09T18:40:33.182Z,3.42
2023-01-09T18:43:05.239Z,2.42
2023-01-09T18:45:35.949Z,2.53
2023-01-09T18:48:06.582Z,3.88
2023-01-09T18:50:37.009Z,3.35
2023-01-09T18:53:07.630Z,5.22
2023-01-09T18:55:42.738Z,4.78
2023-01-09T18:58:13.352Z,16.23
2023-01-09T19:00:46.093Z,9.55
2023-01-09T19:03:17.065Z,6.72
2023-01-09T19:05:48.023Z,4.70
2023-01-09T19:08:20.194Z,4.55
2023-01-09T19:10:56.927Z,4.32
2023-01-09T19:13:27.716Z,3.28
2023-01-09T19:15:58.493Z,3.20
2023-01-09T19:18:30.299Z,4.78
2023-01-09T19:21:00.644Z,4.90
2023-01-09T19:23:31.388Z,4.00
2023-01-09T19:26:09.150Z,4.03
2023-01-09T19:28:39.754Z,4.60
2023-01-09T19:31:10.146Z,5.43
2023-01-09T19:33:40.826Z,4.30
2023-01-09T19:36:12.226Z,3.97
2023-01-09T19:38:43.675Z,4.05
2023-01-09T19:41:19.596Z,3.85
2023-01-09T19:43:50.080Z,4.15
2023-01-09T19:46:22.832Z,3.70
2023-01-09T19:48:54.243Z,3.70
2023-01-09T19:51:25.671Z,4.38
2023-01-09T19:56:34.063Z,4.40
2023-01-09T19:59:06.458Z,5.45
2023-01-09T20:01:39.844Z,4.38
2023-01-09T20:04:14.001Z,4.28
2023-01-09T20:06:46.464Z,3.60
2023-01-09T20:09:21.806Z,3.10
2023-01-09T20:11:55.407Z,3.15
2023-01-09T20:14:26.920Z,3.70
2023-01-09T20:17:01.127Z,4.13
2023-01-09T20:19:32.752Z,3.95
2023-01-09T20:22:04.108Z,4.05
2023-01-09T20:24:35.204Z,3.90
2023-01-09T20:27:08.841Z,4.93
2023-01-09T20:29:40.984Z,3.95
2023-01-09T20:32:11.963Z,5.13
2023-01-09T20:34:42.850Z,4.10
2023-01-09T20:37:13.781Z,5.57
2023-01-09T20:39:44.725Z,4.35
2023-01-09T20:42:18.179Z,4.95
2023-01-09T20:44:48.933Z,5.63
2023-01-09T20:47:22.336Z,5.85
2023-01-09T20:49:53.176Z,5.03
2023-01-09T20:52:24.322Z,5.38
2023-01-09T20:54:55.147Z,4.28
2023-01-09T20:57:28.637Z,4.03
2023-01-09T20:59:59.654Z,5.15
2023-01-09T21:02:31.081Z,3.78
2023-01-09T21:05:02.025Z,4.07
2023-01-09T21:07:33.096Z,4.53
2023-01-09T21:10:03.986Z,4.18
2023-01-09T21:12:40.086Z,2.42
2023-01-09T21:15:16.832Z,2.70
2023-01-09T21:17:47.925Z,2.97
2023-01-09T21:20:19.115Z,4.25
2023-01-09T21:22:49.990Z,5.78
2023-01-09T21:25:20.809Z,5.93
2023-01-09T21:27:54.534Z,7.03
2023-01-09T21:30:25.441Z,7.97
2023-01-09T21:32:56.298Z,9.32
2023-01-09T21:35:27.158Z,7.80
2023-01-09T21:37:57.993Z,7.82
2023-01-09T21:40:28.752Z,6.25
2023-01-09T21:43:14.440Z,7.15
2023-01-09T21:45:57.659Z,6.53
2023-01-09T21:48:28.666Z,5.75
2023-01-09T21:50:59.597Z,7.07
2023-01-09T21:53:30.537Z,6.57
2023-01-09T21:56:01.277Z,6.25
2023-01-09T21:58:34.774Z,6.40
2023-01-09T22:01:05.741Z,6.95
2023-01-09T22:03:36.557Z,6.63
2023-01-09T22:06:07.776Z,4.85
2023-01-09T22:08:39.131Z,3.58
2023-01-09T22:11:09.940Z,3.30
2023-01-09T22:13:43.371Z,3.05
2023-01-09T22:16:14.204Z,3.08
2023-01-09T22:18:45.113Z,4.80
2023-01-09T22:21:17.693Z,3.47
2023-01-09T22:23:48.758Z,4.00
2023-01-09T22:26:20.700Z,4.13
2023-01-09T22:28:55.976Z,4.35
2023-01-09T22:31:29.555Z,3.72
2023-01-09T22:34:02.561Z,5.03
2023-01-09T22:36:34.042Z,4.25
2023-01-09T22:39:05.111Z,3.58
2023-01-09T22:41:36.302Z,4.35
2023-01-09T22:44:09.703Z,3.55
2023-01-09T22:46:40.806Z,3.10
2023-01-09T22:49:12.357Z,3.40
2023-01-09T22:51:43.960Z,4.25
2023-01-09T22:54:14.802Z,4.68
2023-01-09T22:56:45.697Z,3.97
2023-01-09T22:59:19.075Z,4.53
2023-01-09T23:01:49.901Z,4.80
2023-01-09T23:04:20.700Z,8.10
2023-01-09T23:06:51.631Z,8.15
2023-01-09T23:09:22.455Z,6.10
2023-01-09T23:12:06.279Z,9.43
2023-01-09T23:14:41.181Z,9.18
2023-01-09T23:17:13.765Z,7.88
2023-01-09T23:19:44.658Z,5.50
2023-01-09T23:22:15.413Z,6.75
2023-01-09T23:24:46.166Z,6.82
2023-01-09T23:27:16.925Z,6.72
2023-01-09T23:29:50.423Z,7.32
2023-01-09T23:32:21.239Z,5.68
2023-01-09T23:34:53.274Z,5.70
2023-01-09T23:37:24.096Z,8.65
2023-01-09T23:39:54.906Z,10.00
2023-01-09T23:42:37.996Z,13.02
2023-01-09T23:45:11.967Z,12.85
2023-01-09T23:47:42.790Z,12.68
2023-01-09T23:50:14.901Z,13.07
2023-01-09T23:52:45.993Z,11.27
2023-01-09T23:55:17.715Z,7.80
2023-01-09T23:57:48.452Z,8.15
